Terminal Aerodrome Forecast
Issued by NWS Springfield, MO

Home | Current Version | Previous Version | Text Only | Print | Product List | Glossary On
Versions: 1 2 3 4 5 6 7 8 9 10 11 12 13 14 15 16 17 18 19 20 21 22
000
FTUS43 KSGF 012300
TAFSGF
TAF
KSGF 012330Z 0200/0224 05006KT P6SM SCT035
     FM020700 VRB05KT P6SM BKN035
     FM020900 13006KT 4SM BR BKN020
     FM021500 14005KT P6SM SCT035=

USA.gov is the U.S. government's official web portal to all federal, state and local government web resources and services.